sensor_id;sensor_type;location;lat;lon;timestamp;pressure;altitude;pressure_sealevel;temperature
61703;BMP280;47622;47.726;3.298;2024-01-30T00:01:38;100313.09;;;6.93
61703;BMP280;47622;47.726;3.298;2024-01-30T00:04:03;100311.50;;;6.92
61703;BMP280;47622;47.726;3.298;2024-01-30T00:06:29;100316.00;;;6.97
61703;BMP280;47622;47.726;3.298;2024-01-30T00:08:54;100310.78;;;6.97
61703;BMP280;47622;47.726;3.298;2024-01-30T00:11:20;100310.22;;;6.95
61703;BMP280;47622;47.726;3.298;2024-01-30T00:13:46;100316.00;;;6.97
61703;BMP280;47622;47.726;3.298;2024-01-30T00:16:24;100312.31;;;6.93
61703;BMP280;47622;47.726;3.298;2024-01-30T00:18:50;100305.97;;;6.89
61703;BMP280;47622;47.726;3.298;2024-01-30T00:21:17;100308.03;;;6.87
61703;BMP280;47622;47.726;3.298;2024-01-30T00:23:43;100306.63;;;6.79
61703;BMP280;47622;47.726;3.298;2024-01-30T00:26:08;100317.78;;;6.74
61703;BMP280;47622;47.726;3.298;2024-01-30T00:28:34;100315.38;;;6.68
61703;BMP280;47622;47.726;3.298;2024-01-30T00:31:01;100333.84;;;6.66
61703;BMP280;47622;47.726;3.298;2024-01-30T00:33:27;100327.53;;;6.62
61703;BMP280;47622;47.726;3.298;2024-01-30T00:35:52;100333.84;;;6.66
61703;BMP280;47622;47.726;3.298;2024-01-30T00:38:18;100333.84;;;6.66
61703;BMP280;47622;47.726;3.298;2024-01-30T00:40:43;100333.06;;;6.66
61703;BMP280;47622;47.726;3.298;2024-01-30T00:43:09;100334.31;;;6.63
61703;BMP280;47622;47.726;3.298;2024-01-30T00:45:35;100333.53;;;6.63
61703;BMP280;47622;47.726;3.298;2024-01-30T00:48:00;100334.84;;;6.65
61703;BMP280;47622;47.726;3.298;2024-01-30T00:50:26;100332.25;;;6.65
61703;BMP280;47622;47.726;3.298;2024-01-30T00:52:51;100337.16;;;6.62
61703;BMP280;47622;47.726;3.298;2024-01-30T00:55:17;100328.50;;;6.56
61703;BMP280;47622;47.726;3.298;2024-01-30T00:57:42;100332.34;;;6.53
61703;BMP280;47622;47.726;3.298;2024-01-30T01:00:08;100335.34;;;6.62
61703;BMP280;47622;47.726;3.298;2024-01-30T01:02:37;100332.31;;;6.70
61703;BMP280;47622;47.726;3.298;2024-01-30T01:05:04;100331.78;;;6.68
61703;BMP280;47622;47.726;3.298;2024-01-30T01:07:30;100326.03;;;6.66
61703;BMP280;47622;47.726;3.298;2024-01-30T01:09:56;100327.03;;;6.65
61703;BMP280;47622;47.726;3.298;2024-01-30T01:12:21;100328.25;;;6.57
61703;BMP280;47622;47.726;3.298;2024-01-30T01:14:47;100323.28;;;6.56
61703;BMP280;47622;47.726;3.298;2024-01-30T01:17:12;100325.00;;;6.67
61703;BMP280;47622;47.726;3.298;2024-01-30T01:19:38;100325.59;;;6.74
61703;BMP280;47622;47.726;3.298;2024-01-30T01:22:05;100326.56;;;6.68
61703;BMP280;47622;47.726;3.298;2024-01-30T01:24:31;100331.94;;;6.62
61703;BMP280;47622;47.726;3.298;2024-01-30T01:26:58;100325.31;;;6.54
61703;BMP280;47622;47.726;3.298;2024-01-30T01:29:24;100321.72;;;6.55
61703;BMP280;47622;47.726;3.298;2024-01-30T01:31:57;100336.38;;;6.61
61703;BMP280;47622;47.726;3.298;2024-01-30T01:34:24;100328.50;;;6.56
61703;BMP280;47622;47.726;3.298;2024-01-30T01:36:50;100326.94;;;6.55
61703;BMP280;47622;47.726;3.298;2024-01-30T01:39:16;100326.94;;;6.55
61703;BMP280;47622;47.726;3.298;2024-01-30T01:41:42;100323.75;;;6.53
61703;BMP280;47622;47.726;3.298;2024-01-30T01:44:08;100332.44;;;6.59
61703;BMP280;47622;47.726;3.298;2024-01-30T01:46:34;100344.44;;;6.60
61703;BMP280;47622;47.726;3.298;2024-01-30T01:49:02;100335.59;;;6.61
61703;BMP280;47622;47.726;3.298;2024-01-30T01:51:29;100334.78;;;6.60
61703;BMP280;47622;47.726;3.298;2024-01-30T01:53:57;100321.81;;;6.65
61703;BMP280;47622;47.726;3.298;2024-01-30T01:56:24;100335.09;;;6.64
61703;BMP280;47622;47.726;3.298;2024-01-30T01:58:51;100330.66;;;6.64
61703;BMP280;47622;47.726;3.298;2024-01-30T02:01:20;100337.47;;;6.65
61703;BMP280;47622;47.726;3.298;2024-01-30T02:03:46;100333.53;;;6.63
61703;BMP280;47622;47.726;3.298;2024-01-30T02:06:13;100338.72;;;6.63
61703;BMP280;47622;47.726;3.298;2024-01-30T02:08:40;100334.25;;;6.58
61703;BMP280;47622;47.726;3.298;2024-01-30T02:11:05;100343.66;;;6.59
61703;BMP280;47622;47.726;3.298;2024-01-30T02:13:31;100337.66;;;6.59
61703;BMP280;47622;47.726;3.298;2024-01-30T02:15:56;100336.84;;;6.58
61703;BMP280;47622;47.726;3.298;2024-01-30T02:18:22;100333.91;;;6.54
61703;BMP280;47622;47.726;3.298;2024-01-30T02:20:48;100343.66;;;6.59
61703;BMP280;47622;47.726;3.298;2024-01-30T02:23:15;100340.94;;;6.54
61703;BMP280;47622;47.726;3.298;2024-01-30T02:25:42;100336.53;;;6.54
61703;BMP280;47622;47.726;3.298;2024-01-30T02:28:14;100347.78;;;6.55
61703;BMP280;47622;47.726;3.298;2024-01-30T02:30:40;100344.59;;;6.53
61703;BMP280;47622;47.726;3.298;2024-01-30T02:33:09;100350.91;;;6.57
61703;BMP280;47622;47.726;3.298;2024-01-30T02:35:35;100349.25;;;6.51
61703;BMP280;47622;47.726;3.298;2024-01-30T02:38:00;100355.00;;;6.53
61703;BMP280;47622;47.726;3.298;2024-01-30T02:40:26;100353.91;;;6.49
61703;BMP280;47622;47.726;3.298;2024-01-30T02:42:52;100349.66;;;6.43
61703;BMP280;47622;47.726;3.298;2024-01-30T02:45:18;100353.28;;;6.42
61703;BMP280;47622;47.726;3.298;2024-01-30T02:47:43;100356.44;;;6.44
61703;BMP280;47622;47.726;3.298;2024-01-30T02:50:09;100343.66;;;6.42
61703;BMP280;47622;47.726;3.298;2024-01-30T02:52:35;100344.94;;;6.40
61703;BMP280;47622;47.726;3.298;2024-01-30T02:55:01;100346.41;;;6.36
61703;BMP280;47622;47.726;3.298;2024-01-30T02:57:27;100342.22;;;6.35
61703;BMP280;47622;47.726;3.298;2024-01-30T02:59:53;100338.16;;;6.39
61703;BMP280;47622;47.726;3.298;2024-01-30T03:02:18;100340.19;;;6.37
61703;BMP280;47622;47.726;3.298;2024-01-30T03:04:44;100345.72;;;6.40
61703;BMP280;47622;47.726;3.298;2024-01-30T03:07:10;100341.28;;;6.41
61703;BMP280;47622;47.726;3.298;2024-01-30T03:09:36;100345.47;;;6.42
61703;BMP280;47622;47.726;3.298;2024-01-30T03:12:03;100343.41;;;6.44
61703;BMP280;47622;47.726;3.298;2024-01-30T03:14:31;100340.03;;;6.43
61703;BMP280;47622;47.726;3.298;2024-01-30T03:16:57;100340.81;;;6.44
61703;BMP280;47622;47.726;3.298;2024-01-30T03:19:23;100339.22;;;6.43
61703;BMP280;47622;47.726;3.298;2024-01-30T03:21:49;100330.38;;;6.44
61703;BMP280;47622;47.726;3.298;2024-01-30T03:24:14;100330.97;;;6.46
61703;BMP280;47622;47.726;3.298;2024-01-30T03:26:40;100329.94;;;6.47
61703;BMP280;47622;47.726;3.298;2024-01-30T03:29:05;100329.16;;;6.46
61703;BMP280;47622;47.726;3.298;2024-01-30T03:31:31;100323.16;;;6.46
61703;BMP280;47622;47.726;3.298;2024-01-30T03:33:57;100327.84;;;6.49
61703;BMP280;47622;47.726;3.298;2024-01-30T03:36:22;100329.16;;;6.46
61703;BMP280;47622;47.726;3.298;2024-01-30T03:38:48;100329.66;;;6.48
61703;BMP280;47622;47.726;3.298;2024-01-30T03:41:14;100332.25;;;6.48
61703;BMP280;47622;47.726;3.298;2024-01-30T03:43:40;100333.56;;;6.46
61703;BMP280;47622;47.726;3.298;2024-01-30T03:46:06;100329.59;;;6.43
61703;BMP280;47622;47.726;3.298;2024-01-30T03:48:31;100338.25;;;6.49
61703;BMP280;47622;47.726;3.298;2024-01-30T03:50:57;100331.09;;;6.56
61703;BMP280;47622;47.726;3.298;2024-01-30T03:53:22;100339.22;;;6.60
61703;BMP280;47622;47.726;3.298;2024-01-30T03:55:48;100332.19;;;6.60
61703;BMP280;47622;47.726;3.298;2024-01-30T03:58:14;100337.88;;;6.57
61703;BMP280;47622;47.726;3.298;2024-01-30T04:00:39;100335.03;;;6.59
61703;BMP280;47622;47.726;3.298;2024-01-30T04:03:06;100336.63;;;6.60
61703;BMP280;47622;47.726;3.298;2024-01-30T04:05:31;100340.16;;;6.53
61703;BMP280;47622;47.726;3.298;2024-01-30T04:07:57;100327.38;;;6.52
61703;BMP280;47622;47.726;3.298;2024-01-30T04:10:23;100335.44;;;6.50
61703;BMP280;47622;47.726;3.298;2024-01-30T04:12:50;100332.59;;;6.52
61703;BMP280;47622;47.726;3.298;2024-01-30T04:15:15;100329.44;;;6.50
61703;BMP280;47622;47.726;3.298;2024-01-30T04:17:42;100344.59;;;6.53
61703;BMP280;47622;47.726;3.298;2024-01-30T04:20:07;100349.81;;;6.53
61703;BMP280;47622;47.726;3.298;2024-01-30T04:22:35;100341.44;;;6.51
61703;BMP280;47622;47.726;3.298;2024-01-30T04:25:00;100344.03;;;6.51
61703;BMP280;47622;47.726;3.298;2024-01-30T04:27:26;100341.69;;;6.49
61703;BMP280;47622;47.726;3.298;2024-01-30T04:29:51;100351.22;;;6.44
61703;BMP280;47622;47.726;3.298;2024-01-30T04:32:17;100350.22;;;6.45
61703;BMP280;47622;47.726;3.298;2024-01-30T04:34:42;100349.09;;;6.41
61703;BMP280;47622;47.726;3.298;2024-01-30T04:37:08;100351.72;;;6.41
61703;BMP280;47622;47.726;3.298;2024-01-30T04:39:33;100353.28;;;6.42
61703;BMP280;47622;47.726;3.298;2024-01-30T04:41:59;100361.66;;;6.44
61703;BMP280;47622;47.726;3.298;2024-01-30T04:44:25;100354.41;;;6.46
61703;BMP280;47622;47.726;3.298;2024-01-30T04:46:50;100359.63;;;6.46
61703;BMP280;47622;47.726;3.298;2024-01-30T04:49:17;100357.25;;;6.44
61703;BMP280;47622;47.726;3.298;2024-01-30T04:51:43;100355.91;;;6.42
61703;BMP280;47622;47.726;3.298;2024-01-30T04:54:08;100360.06;;;6.43
61703;BMP280;47622;47.726;3.298;2024-01-30T04:56:34;100363.25;;;6.45
61703;BMP280;47622;47.726;3.298;2024-01-30T04:59:02;100367.94;;;6.48
61703;BMP280;47622;47.726;3.298;2024-01-30T05:01:28;100363.25;;;6.45
61703;BMP280;47622;47.726;3.298;2024-01-30T05:03:53;100369.25;;;6.45
61703;BMP280;47622;47.726;3.298;2024-01-30T05:06:25;100365.63;;;6.46
61703;BMP280;47622;47.726;3.298;2024-01-30T05:08:51;100364.31;;;6.49
61703;BMP280;47622;47.726;3.298;2024-01-30T05:11:16;100365.34;;;6.48
61703;BMP280;47622;47.726;3.298;2024-01-30T05:13:42;100360.22;;;6.53
61703;BMP280;47622;47.726;3.298;2024-01-30T05:16:08;100366.13;;;6.48
61703;BMP280;47622;47.726;3.298;2024-01-30T05:18:33;100367.94;;;6.48
61703;BMP280;47622;47.726;3.298;2024-01-30T05:20:59;100372.56;;;6.41
61703;BMP280;47622;47.726;3.298;2024-01-30T05:23:24;100375.69;;;6.43
61703;BMP280;47622;47.726;3.298;2024-01-30T05:25:50;100372.56;;;6.41
61703;BMP280;47622;47.726;3.298;2024-01-30T05:28:16;100372.56;;;6.41
61703;BMP280;47622;47.726;3.298;2024-01-30T05:30:41;100366.84;;;6.44
61703;BMP280;47622;47.726;3.298;2024-01-30T05:33:07;100374.72;;;6.49
61703;BMP280;47622;47.726;3.298;2024-01-30T05:35:32;100369.06;;;6.52
61703;BMP280;47622;47.726;3.298;2024-01-30T05:37:58;100368.28;;;6.51
61703;BMP280;47622;47.726;3.298;2024-01-30T05:40:23;100374.28;;;6.52
61703;BMP280;47622;47.726;3.298;2024-01-30T05:42:49;100377.91;;;6.51
61703;BMP280;47622;47.726;3.298;2024-01-30T05:45:14;100378.47;;;6.53
61703;BMP280;47622;47.726;3.298;2024-01-30T05:47:40;100388.72;;;6.60
61703;BMP280;47622;47.726;3.298;2024-01-30T05:50:06;100388.97;;;6.58
61703;BMP280;47622;47.726;3.298;2024-01-30T05:52:31;100392.66;;;6.62
61703;BMP280;47622;47.726;3.298;2024-01-30T05:54:57;100388.47;;;6.61
61703;BMP280;47622;47.726;3.298;2024-01-30T05:57:22;100388.00;;;6.64
61703;BMP280;47622;47.726;3.298;2024-01-30T05:59:48;100397.97;;;6.67
61703;BMP280;47622;47.726;3.298;2024-01-30T06:02:14;100388.56;;;6.66
61703;BMP280;47622;47.726;3.298;2024-01-30T06:04:39;100400.34;;;6.69
61703;BMP280;47622;47.726;3.298;2024-01-30T06:07:05;100402.69;;;6.70
61703;BMP280;47622;47.726;3.298;2024-01-30T06:09:32;100399.31;;;6.70
61703;BMP280;47622;47.726;3.298;2024-01-30T06:11:57;100394.47;;;6.78
61703;BMP280;47622;47.726;3.298;2024-01-30T06:14:23;100402.69;;;6.87
61703;BMP280;47622;47.726;3.298;2024-01-30T06:16:49;100411.91;;;6.95
61703;BMP280;47622;47.726;3.298;2024-01-30T06:19:14;100409.31;;;6.95
61703;BMP280;47622;47.726;3.298;2024-01-30T06:21:40;100403.63;;;6.98
61703;BMP280;47622;47.726;3.298;2024-01-30T06:24:05;100405.03;;;6.89
61703;BMP280;47622;47.726;3.298;2024-01-30T06:26:31;100407.66;;;6.89
61703;BMP280;47622;47.726;3.298;2024-01-30T06:28:56;100409.78;;;6.92
61703;BMP280;47622;47.726;3.298;2024-01-30T06:31:23;100412.47;;;6.97
61703;BMP280;47622;47.726;3.298;2024-01-30T06:33:49;100409.22;;;6.90
61703;BMP280;47622;47.726;3.298;2024-01-30T06:36:15;100402.69;;;6.87
61703;BMP280;47622;47.726;3.298;2024-01-30T06:38:41;100408.38;;;6.84
61703;BMP280;47622;47.726;3.298;2024-01-30T06:41:07;100409.66;;;6.81
61703;BMP280;47622;47.726;3.298;2024-01-30T06:43:32;100397.63;;;6.80
61703;BMP280;47622;47.726;3.298;2024-01-30T06:45:58;100406.03;;;6.82
61703;BMP280;47622;47.726;3.298;2024-01-30T06:48:24;100405.03;;;6.89
61703;BMP280;47622;47.726;3.298;2024-01-30T06:50:51;100403.63;;;6.98
61703;BMP280;47622;47.726;3.298;2024-01-30T06:53:17;100396.19;;;6.90
61703;BMP280;47622;47.726;3.298;2024-01-30T06:55:42;100401.25;;;6.79
61703;BMP280;47622;47.726;3.298;2024-01-30T06:58:08;100396.06;;;6.79
61703;BMP280;47622;47.726;3.298;2024-01-30T07:00:33;100397.72;;;6.85
61703;BMP280;47622;47.726;3.298;2024-01-30T07:02:59;100407.09;;;6.87
61703;BMP280;47622;47.726;3.298;2024-01-30T07:05:25;100409.31;;;6.78
61703;BMP280;47622;47.726;3.298;2024-01-30T07:07:51;100413.69;;;6.72
61703;BMP280;47622;47.726;3.298;2024-01-30T07:10:17;100421.50;;;6.72
61703;BMP280;47622;47.726;3.298;2024-01-30T07:12:42;100428.59;;;6.77
61703;BMP280;47622;47.726;3.298;2024-01-30T07:15:08;100420.78;;;6.77
61703;BMP280;47622;47.726;3.298;2024-01-30T07:17:35;100416.13;;;6.79
61703;BMP280;47622;47.726;3.298;2024-01-30T07:20:00;100428.38;;;6.78
61703;BMP280;47622;47.726;3.298;2024-01-30T07:22:29;100429.41;;;6.77
61703;BMP280;47622;47.726;3.298;2024-01-30T07:24:55;100430.19;;;6.78
61703;BMP280;47622;47.726;3.298;2024-01-30T07:27:20;100429.69;;;6.81
61703;BMP280;47622;47.726;3.298;2024-01-30T07:29:46;100438.41;;;6.87
61703;BMP280;47622;47.726;3.298;2024-01-30T07:32:12;100430.03;;;6.84
61703;BMP280;47622;47.726;3.298;2024-01-30T07:34:38;100436.50;;;6.82
61703;BMP280;47622;47.726;3.298;2024-01-30T07:37:03;100438.41;;;6.87
61703;BMP280;47622;47.726;3.298;2024-01-30T07:39:29;100448.34;;;6.90
61703;BMP280;47622;47.726;3.298;2024-01-30T07:41:54;100454.19;;;6.97
61703;BMP280;47622;47.726;3.298;2024-01-30T07:44:20;100448.47;;;7.00
61703;BMP280;47622;47.726;3.298;2024-01-30T07:46:46;100453.69;;;7.00
61703;BMP280;47622;47.726;3.298;2024-01-30T07:49:11;100451.09;;;7.00
61703;BMP280;47622;47.726;3.298;2024-01-30T07:51:39;100451.50;;;7.08
61703;BMP280;47622;47.726;3.298;2024-01-30T07:54:05;100457.50;;;7.09
61703;BMP280;47622;47.726;3.298;2024-01-30T07:56:30;100459.53;;;7.07
61703;BMP280;47622;47.726;3.298;2024-01-30T07:58:56;100455.59;;;7.04
61703;BMP280;47622;47.726;3.298;2024-01-30T08:01:21;100457.19;;;7.05
61703;BMP280;47622;47.726;3.298;2024-01-30T08:03:47;100460.66;;;7.11
61703;BMP280;47622;47.726;3.298;2024-01-30T08:06:12;100472.81;;;7.22
61703;BMP280;47622;47.726;3.298;2024-01-30T08:08:38;100468.63;;;7.21
61703;BMP280;47622;47.726;3.298;2024-01-30T08:11:03;100472.81;;;7.22
61703;BMP280;47622;47.726;3.298;2024-01-30T08:13:29;100483.06;;;7.29
61703;BMP280;47622;47.726;3.298;2024-01-30T08:15:54;100485.44;;;7.30
61703;BMP280;47622;47.726;3.298;2024-01-30T08:18:20;100485.78;;;7.39
61703;BMP280;47622;47.726;3.298;2024-01-30T08:20:45;100485.38;;;7.47
61703;BMP280;47622;47.726;3.298;2024-01-30T08:23:11;100484.19;;;7.55
61703;BMP280;47622;47.726;3.298;2024-01-30T08:25:36;100486.31;;;7.58
61703;BMP280;47622;47.726;3.298;2024-01-30T08:28:02;100493.72;;;7.66
61703;BMP280;47622;47.726;3.298;2024-01-30T08:30:27;100502.63;;;7.70
61703;BMP280;47622;47.726;3.298;2024-01-30T08:32:53;100501.38;;;7.72
61703;BMP280;47622;47.726;3.298;2024-01-30T08:35:18;100501.25;;;7.84
61703;BMP280;47622;47.726;3.298;2024-01-30T08:37:44;100507.63;;;7.93
61703;BMP280;47622;47.726;3.298;2024-01-30T08:40:10;100501.97;;;8.02
61703;BMP280;47622;47.726;3.298;2024-01-30T08:42:35;100516.72;;;8.13
61703;BMP280;47622;47.726;3.298;2024-01-30T08:45:01;100505.72;;;8.11
61703;BMP280;47622;47.726;3.298;2024-01-30T08:47:26;100502.97;;;8.22
61703;BMP280;47622;47.726;3.298;2024-01-30T08:49:52;100504.59;;;8.61
61703;BMP280;47622;47.726;3.298;2024-01-30T08:52:17;100512.25;;;9.09
61703;BMP280;47622;47.726;3.298;2024-01-30T08:54:43;100513.56;;;9.54
61703;BMP280;47622;47.726;3.298;2024-01-30T08:57:09;100513.72;;;10.25
61703;BMP280;47622;47.726;3.298;2024-01-30T08:59:34;100514.72;;;11.01
61703;BMP280;47622;47.726;3.298;2024-01-30T09:02:00;100515.44;;;11.32
61703;BMP280;47622;47.726;3.298;2024-01-30T09:04:25;100524.56;;;11.54
61703;BMP280;47622;47.726;3.298;2024-01-30T09:06:51;100516.00;;;11.78
61703;BMP280;47622;47.726;3.298;2024-01-30T09:09:17;100512.94;;;12.39
61703;BMP280;47622;47.726;3.298;2024-01-30T09:11:43;100518.94;;;12.15
61703;BMP280;47622;47.726;3.298;2024-01-30T09:14:09;100517.88;;;12.11
61703;BMP280;47622;47.726;3.298;2024-01-30T09:16:34;100520.34;;;12.37
61703;BMP280;47622;47.726;3.298;2024-01-30T09:19:00;100524.75;;;12.70
61703;BMP280;47622;47.726;3.298;2024-01-30T09:21:25;100528.13;;;12.76
61703;BMP280;47622;47.726;3.298;2024-01-30T09:23:54;100524.78;;;12.65
61703;BMP280;47622;47.726;3.298;2024-01-30T09:26:20;100527.34;;;12.75
61703;BMP280;47622;47.726;3.298;2024-01-30T09:28:45;100524.69;;;13.04
61703;BMP280;47622;47.726;3.298;2024-01-30T09:31:12;100535.09;;;12.91
61703;BMP280;47622;47.726;3.298;2024-01-30T09:33:38;100529.91;;;12.80
61703;BMP280;47622;47.726;3.298;2024-01-30T09:36:05;100534.66;;;12.84
61703;BMP280;47622;47.726;3.298;2024-01-30T09:38:31;100533.94;;;12.78
61703;BMP280;47622;47.726;3.298;2024-01-30T09:40:59;100538.88;;;12.79
61703;BMP280;47622;47.726;3.298;2024-01-30T09:43:32;100545.31;;;12.92
61703;BMP280;47622;47.726;3.298;2024-01-30T09:46:00;100542.59;;;13.02
61703;BMP280;47622;47.726;3.298;2024-01-30T09:48:29;100548.41;;;12.75
61703;BMP280;47622;47.726;3.298;2024-01-30T09:50:56;100541.22;;;12.57
61703;BMP280;47622;47.726;3.298;2024-01-30T09:53:22;100543.88;;;12.52
61703;BMP280;47622;47.726;3.298;2024-01-30T09:55:50;100549.38;;;12.56
61703;BMP280;47622;47.726;3.298;2024-01-30T09:58:17;100545.59;;;12.67
61703;BMP280;47622;47.726;3.298;2024-01-30T10:00:42;100556.28;;;13.04
61703;BMP280;47622;47.726;3.298;2024-01-30T10:03:09;100558.69;;;13.86
61703;BMP280;47622;47.726;3.298;2024-01-30T10:05:35;100563.53;;;14.77
61703;BMP280;47622;47.726;3.298;2024-01-30T10:08:06;100563.16;;;15.74
61703;BMP280;47622;47.726;3.298;2024-01-30T10:10:35;100562.75;;;16.74
61703;BMP280;47622;47.726;3.298;2024-01-30T10:13:01;100564.34;;;17.66
61703;BMP280;47622;47.726;3.298;2024-01-30T10:15:29;100570.25;;;17.29
61703;BMP280;47622;47.726;3.298;2024-01-30T10:17:55;100560.59;;;17.50
61703;BMP280;47622;47.726;3.298;2024-01-30T10:20:20;100558.34;;;18.04
61703;BMP280;47622;47.726;3.298;2024-01-30T10:22:48;100573.81;;;18.48
61703;BMP280;47622;47.726;3.298;2024-01-30T10:25:15;100569.75;;;17.78
61703;BMP280;47622;47.726;3.298;2024-01-30T10:27:40;100560.88;;;17.74
61703;BMP280;47622;47.726;3.298;2024-01-30T10:30:07;100569.63;;;17.49
61703;BMP280;47622;47.726;3.298;2024-01-30T10:32:36;100565.53;;;17.08
61703;BMP280;47622;47.726;3.298;2024-01-30T10:35:02;100579.69;;;16.24
61703;BMP280;47622;47.726;3.298;2024-01-30T10:37:30;100574.13;;;16.66
61703;BMP280;47622;47.726;3.298;2024-01-30T10:40:02;100575.94;;;16.87
61703;BMP280;47622;47.726;3.298;2024-01-30T10:42:31;100573.75;;;16.98
61703;BMP280;47622;47.726;3.298;2024-01-30T10:45:06;100574.31;;;16.78
61703;BMP280;47622;47.726;3.298;2024-01-30T10:47:34;100568.63;;;16.53
61703;BMP280;47622;47.726;3.298;2024-01-30T10:50:02;100580.00;;;16.23
61703;BMP280;47622;47.726;3.298;2024-01-30T10:52:29;100581.44;;;16.29
61703;BMP280;47622;47.726;3.298;2024-01-30T10:54:55;100576.16;;;15.84
61703;BMP280;47622;47.726;3.298;2024-01-30T10:57:27;100575.44;;;15.92
61703;BMP280;47622;47.726;3.298;2024-01-30T10:59:56;100567.78;;;16.13
61703;BMP280;47622;47.726;3.298;2024-01-30T11:02:22;100572.28;;;16.13
61703;BMP280;47622;47.726;3.298;2024-01-30T11:04:49;100571.03;;;16.41
61703;BMP280;47622;47.726;3.298;2024-01-30T11:07:23;100572.16;;;16.40
61703;BMP280;47622;47.726;3.298;2024-01-30T11:12:16;100557.78;;;16.41
61703;BMP280;47622;47.726;3.298;2024-01-30T11:14:42;100573.50;;;16.69
61703;BMP280;47622;47.726;3.298;2024-01-30T11:17:10;100554.13;;;15.98
61703;BMP280;47622;47.726;3.298;2024-01-30T11:19:37;100562.41;;;16.05
61703;BMP280;47622;47.726;3.298;2024-01-30T11:22:03;100555.09;;;16.24
61703;BMP280;47622;47.726;3.298;2024-01-30T11:24:29;100555.78;;;16.16
61703;BMP280;47622;47.726;3.298;2024-01-30T11:26:56;100551.81;;;15.82
61703;BMP280;47622;47.726;3.298;2024-01-30T11:29:27;100557.88;;;15.97
61703;BMP280;47622;47.726;3.298;2024-01-30T11:31:58;100553.78;;;16.52
61703;BMP280;47622;47.726;3.298;2024-01-30T11:34:24;100547.00;;;16.69
61703;BMP280;47622;47.726;3.298;2024-01-30T11:36:59;100545.16;;;16.78
61703;BMP280;47622;47.726;3.298;2024-01-30T11:39:29;100552.00;;;16.62
61703;BMP280;47622;47.726;3.298;2024-01-30T11:41:55;100541.81;;;17.20
61703;BMP280;47622;47.726;3.298;2024-01-30T11:44:23;100552.81;;;16.79
61703;BMP280;47622;47.726;3.298;2024-01-30T11:46:51;100544.19;;;17.48
61703;BMP280;47622;47.726;3.298;2024-01-30T11:49:17;100551.81;;;17.23
61703;BMP280;47622;47.726;3.298;2024-01-30T11:51:43;100551.22;;;17.61
61703;BMP280;47622;47.726;3.298;2024-01-30T11:54:10;100550.19;;;18.09
61703;BMP280;47622;47.726;3.298;2024-01-30T11:56:37;100555.69;;;17.95
61703;BMP280;47622;47.726;3.298;2024-01-30T11:59:04;100556.88;;;18.62
61703;BMP280;47622;47.726;3.298;2024-01-30T12:01:30;100555.78;;;18.24
61703;BMP280;47622;47.726;3.298;2024-01-30T12:03:57;100552.56;;;18.48
61703;BMP280;47622;47.726;3.298;2024-01-30T12:06:23;100553.69;;;18.77
61703;BMP280;47622;47.726;3.298;2024-01-30T12:08:58;100548.06;;;18.70
61703;BMP280;47622;47.726;3.298;2024-01-30T12:11:25;100550.03;;;18.14
61703;BMP280;47622;47.726;3.298;2024-01-30T12:13:52;100547.16;;;17.72
61703;BMP280;47622;47.726;3.298;2024-01-30T12:16:18;100555.22;;;17.93
61703;BMP280;47622;47.726;3.298;2024-01-30T12:18:44;100543.09;;;18.59
61703;BMP280;47622;47.726;3.298;2024-01-30T12:21:09;100537.75;;;18.77
61703;BMP280;47622;47.726;3.298;2024-01-30T12:23:35;100535.31;;;18.54
61703;BMP280;47622;47.726;3.298;2024-01-30T12:26:01;100537.88;;;18.42
61703;BMP280;47622;47.726;3.298;2024-01-30T12:28:33;100539.78;;;18.33
61703;BMP280;47622;47.726;3.298;2024-01-30T12:31:04;100543.00;;;18.18
61703;BMP280;47622;47.726;3.298;2024-01-30T12:33:30;100537.16;;;17.86
61703;BMP280;47622;47.726;3.298;2024-01-30T12:35:57;100539.03;;;17.25
61703;BMP280;47622;47.726;3.298;2024-01-30T12:38:26;100543.41;;;17.21
61703;BMP280;47622;47.726;3.298;2024-01-30T12:40:55;100534.31;;;16.48
61703;BMP280;47622;47.726;3.298;2024-01-30T12:43:22;100534.56;;;16.69
61703;BMP280;47622;47.726;3.298;2024-01-30T12:45:50;100537.25;;;16.38
61703;BMP280;47622;47.726;3.298;2024-01-30T12:48:15;100536.84;;;16.22
61703;BMP280;47622;47.726;3.298;2024-01-30T12:50:41;100540.41;;;16.18
61703;BMP280;47622;47.726;3.298;2024-01-30T12:53:07;100539.88;;;16.38
61703;BMP280;47622;47.726;3.298;2024-01-30T12:55:34;100538.59;;;16.05
61703;BMP280;47622;47.726;3.298;2024-01-30T12:58:00;100530.16;;;16.25
61703;BMP280;47622;47.726;3.298;2024-01-30T13:00:27;100529.00;;;16.09
61703;BMP280;47622;47.726;3.298;2024-01-30T13:02:52;100522.50;;;15.70
61703;BMP280;47622;47.726;3.298;2024-01-30T13:05:18;100533.44;;;15.77
61703;BMP280;47622;47.726;3.298;2024-01-30T13:07:44;100521.50;;;15.66
61703;BMP280;47622;47.726;3.298;2024-01-30T13:10:09;100525.59;;;15.50
61703;BMP280;47622;47.726;3.298;2024-01-30T13:12:36;100514.59;;;15.20
61703;BMP280;47622;47.726;3.298;2024-01-30T13:15:05;100520.78;;;15.52
61703;BMP280;47622;47.726;3.298;2024-01-30T13:17:31;100518.28;;;15.33
61703;BMP280;47622;47.726;3.298;2024-01-30T13:19:56;100518.50;;;15.09
61703;BMP280;47622;47.726;3.298;2024-01-30T13:22:23;100520.09;;;15.10
61703;BMP280;47622;47.726;3.298;2024-01-30T13:24:49;100520.31;;;15.00
61703;BMP280;47622;47.726;3.298;2024-01-30T13:27:15;100523.22;;;15.12
61703;BMP280;47622;47.726;3.298;2024-01-30T13:29:41;100515.50;;;15.02
61703;BMP280;47622;47.726;3.298;2024-01-30T13:32:06;100529.53;;;14.89
61703;BMP280;47622;47.726;3.298;2024-01-30T13:34:32;100533.03;;;14.84
61703;BMP280;47622;47.726;3.298;2024-01-30T13:36:58;100526.25;;;14.92
61703;BMP280;47622;47.726;3.298;2024-01-30T13:39:23;100528.31;;;14.81
61703;BMP280;47622;47.726;3.298;2024-01-30T13:41:49;100520.72;;;14.80
61703;BMP280;47622;47.726;3.298;2024-01-30T13:44:16;100520.09;;;14.55
61703;BMP280;47622;47.726;3.298;2024-01-30T13:46:46;100519.91;;;14.65
61703;BMP280;47622;47.726;3.298;2024-01-30T13:49:12;100529.03;;;14.73
61703;BMP280;47622;47.726;3.298;2024-01-30T13:51:37;100521.13;;;14.73
61703;BMP280;47622;47.726;3.298;2024-01-30T13:54:03;100523.13;;;14.62
61703;BMP280;47622;47.726;3.298;2024-01-30T13:56:28;100529.47;;;14.48
61703;BMP280;47622;47.726;3.298;2024-01-30T13:58:55;100529.34;;;14.39
61703;BMP280;47622;47.726;3.298;2024-01-30T14:01:22;100528.03;;;14.23